Terminal Aerodrome Forecast
Issued by NWS Kansas City/Pleasant Hill, MO

Home | Current Version | Previous Version | Text Only | Print | Product List | Glossary On
Versions: 1 2 3 4 5 6 7 8 9 10 11 12 13 14 15 16 17
000
FTUS43 KEAX 010900 AAA
TAFMCI
TAF AMD
KMCI 010958Z 0110/0206 18011KT P6SM -SHRA VCTS SCT025 OVC040CB
      TEMPO 0110/0112 3SM TSRA BR
     FM011700 18012KT P6SM BKN050
     FM012200 15010KT P6SM VCTS BKN050CB=

USA.gov is the U.S. government's official web portal to all federal, state and local government web resources and services.